RZO134 LPLA-LPPT
Flight info
| Callsign | RZO134 |
|---|---|
| Flight time | N/A |
| Altitude | 35000 |
| Route | REGLA DCT BAVAS DCT LENSI T25 GUNTI/N0449F350 DCT LAZET |
| Aircraft | A321/M-SDE3FGHIRWY/LB1 |
Departure
| Time | 2026-05-07 18:23 |
|---|---|
| Airport | Lajes Airport (LPLA) |
Arrival
| Time | N/A |
|---|---|
| Airport | Lisbon Humberto Delgado Airport (LPPT) |
| Time | Latitude | Longitude | Altitude | Speed | Heading |
|---|---|---|---|---|---|
| 2026-05-07 18:01 | 38.75657 | -27.08804 | 196 ft | 0 kts | 92° |
| 2026-05-07 18:19 | 38.75657 | -27.08803 | 185 ft | 0 kts | 92° |
| 2026-05-07 18:20 | 38.75650 | -27.08768 | 198 ft | 7 kts | 114° |
| 2026-05-07 18:20 | 38.75616 | -27.08722 | 193 ft | 7 kts | 141° |
| 2026-05-07 18:20 | 38.75573 | -27.08678 | 184 ft | 8 kts | 141° |
| 2026-05-07 18:20 | 38.75527 | -27.08632 | 194 ft | 9 kts | 141° |
| 2026-05-07 18:21 | 38.75480 | -27.08584 | 196 ft | 9 kts | 141° |
| 2026-05-07 18:21 | 38.75464 | -27.08521 | 184 ft | 7 kts | 65° |
| 2026-05-07 18:21 | 38.75491 | -27.08472 | 192 ft | 6 kts | 54° |
| 2026-05-07 18:21 | 38.75514 | -27.08431 | 190 ft | 5 kts | 54° |
| 2026-05-07 18:22 | 38.75537 | -27.08415 | 192 ft | 3 kts | 355° |
| 2026-05-07 18:22 | 38.75551 | -27.08421 | 184 ft | 3 kts | 338° |
| 2026-05-07 18:22 | 38.75588 | -27.08456 | 190 ft | 12 kts | 321° |
| 2026-05-07 18:22 | 38.75826 | -27.08704 | 197 ft | 75 kts | 321° |
| 2026-05-07 18:23 | 38.76375 | -27.09277 | 179 ft | 125 kts | 321° |
| 2026-05-07 18:23 | 38.77113 | -27.10053 | 481 ft | 137 kts | 321° |
| 2026-05-07 18:23 | 38.77809 | -27.10780 | 1287 ft | 124 kts | 324° |
| 2026-05-07 18:23 | 38.78534 | -27.11394 | 1826 ft | 129 kts | 336° |
| 2026-05-07 18:24 | 38.79387 | -27.11782 | 2296 ft | 136 kts | 343° |
| 2026-05-07 18:24 | 38.80393 | -27.11564 | 2487 ft | 172 kts | 28° |
| 2026-05-07 18:24 | 38.81060 | -27.10100 | 2644 ft | 213 kts | 66° |
| 2026-05-07 18:24 | 38.81274 | -27.08131 | 2927 ft | 231 kts | 78° |
| 2026-05-07 18:25 | 38.81337 | -27.06036 | 3240 ft | 244 kts | 81° |
| 2026-05-07 18:25 | 38.81380 | -27.03739 | 3489 ft | 270 kts | 82° |
| 2026-05-07 18:25 | 38.81432 | -27.01309 | 4315 ft | 275 kts | 81° |
| 2026-05-07 18:25 | 38.81500 | -26.98836 | 5164 ft | 278 kts | 81° |
| 2026-05-07 18:26 | 38.81588 | -26.96374 | 6003 ft | 282 kts | 81° |
| 2026-05-07 18:26 | 38.81697 | -26.93850 | 6767 ft | 285 kts | 80° |
| 2026-05-07 18:26 | 38.81820 | -26.91294 | 7555 ft | 289 kts | 80° |
| 2026-05-07 18:26 | 38.81950 | -26.88713 | 8328 ft | 292 kts | 80° |
| 2026-05-07 18:27 | 38.82084 | -26.86096 | 9099 ft | 296 kts | 80° |
| 2026-05-07 18:27 | 38.82220 | -26.83444 | 9857 ft | 300 kts | 80° |
| 2026-05-07 18:27 | 38.82361 | -26.80718 | 10264 ft | 317 kts | 80° |
| 2026-05-07 18:27 | 38.82465 | -26.78773 | 10378 ft | 332 kts | 81° |
| 2026-05-07 18:28 | 38.82685 | -26.74673 | 10602 ft | 361 kts | 81° |
| 2026-05-07 18:28 | 38.82853 | -26.71419 | 11118 ft | 369 kts | 81° |
| 2026-05-07 18:28 | 38.83011 | -26.68110 | 11770 ft | 374 kts | 82° |
| 2026-05-07 18:28 | 38.83167 | -26.64762 | 12467 ft | 378 kts | 82° |
| 2026-05-07 18:29 | 38.83324 | -26.61375 | 13144 ft | 382 kts | 82° |
| 2026-05-07 18:29 | 38.83487 | -26.57953 | 13813 ft | 386 kts | 82° |
| 2026-05-07 18:29 | 38.83653 | -26.54501 | 14413 ft | 389 kts | 82° |
| 2026-05-07 18:29 | 38.83820 | -26.51025 | 15010 ft | 393 kts | 82° |
| 2026-05-07 18:30 | 38.83989 | -26.47505 | 15606 ft | 397 kts | 82° |
| 2026-05-07 18:30 | 38.84158 | -26.43961 | 16198 ft | 400 kts | 82° |
| 2026-05-07 18:30 | 38.84324 | -26.40422 | 16792 ft | 404 kts | 82° |
| 2026-05-07 18:30 | 38.84491 | -26.36768 | 17362 ft | 407 kts | 82° |
| 2026-05-07 18:31 | 38.84657 | -26.33125 | 17922 ft | 411 kts | 82° |
| 2026-05-07 18:31 | 38.84823 | -26.29451 | 18435 ft | 414 kts | 83° |
| 2026-05-07 18:31 | 38.84991 | -26.25750 | 18923 ft | 418 kts | 82° |
| 2026-05-07 18:31 | 38.85160 | -26.22064 | 19412 ft | 421 kts | 82° |
| 2026-05-07 18:32 | 38.85333 | -26.18295 | 19898 ft | 424 kts | 82° |
| 2026-05-07 18:32 | 38.85503 | -26.14510 | 20372 ft | 427 kts | 82° |
| 2026-05-07 18:32 | 38.85693 | -26.10687 | 20848 ft | 430 kts | 81° |
| 2026-05-07 18:32 | 38.85939 | -26.06854 | 21319 ft | 433 kts | 81° |
| 2026-05-07 18:33 | 38.86222 | -26.02992 | 21783 ft | 436 kts | 80° |
| 2026-05-07 18:33 | 38.86519 | -25.99110 | 22256 ft | 439 kts | 80° |
| 2026-05-07 18:33 | 38.86815 | -25.95190 | 22719 ft | 442 kts | 80° |
| 2026-05-07 18:33 | 38.87101 | -25.91244 | 23177 ft | 445 kts | 81° |
| 2026-05-07 18:34 | 38.87373 | -25.87272 | 23600 ft | 449 kts | 81° |
| 2026-05-07 18:34 | 38.87637 | -25.83273 | 23955 ft | 452 kts | 81° |
| 2026-05-07 18:34 | 38.87895 | -25.79245 | 24309 ft | 455 kts | 81° |
| 2026-05-07 18:34 | 38.88156 | -25.75184 | 24659 ft | 458 kts | 81° |
| 2026-05-07 18:35 | 38.88420 | -25.71152 | 24985 ft | 460 kts | 81° |
| 2026-05-07 18:35 | 38.88692 | -25.67045 | 25338 ft | 463 kts | 81° |
| 2026-05-07 18:35 | 38.88964 | -25.62909 | 25673 ft | 466 kts | 81° |
| 2026-05-07 18:35 | 38.89234 | -25.58753 | 26014 ft | 469 kts | 81° |
| 2026-05-07 18:36 | 38.89504 | -25.54557 | 26341 ft | 472 kts | 81° |
| 2026-05-07 18:36 | 38.89775 | -25.50348 | 26659 ft | 475 kts | 81° |
| 2026-05-07 18:36 | 38.90046 | -25.46111 | 26973 ft | 477 kts | 81° |
| 2026-05-07 18:36 | 38.90315 | -25.41853 | 27280 ft | 480 kts | 81° |
| 2026-05-07 18:37 | 38.90584 | -25.37571 | 27584 ft | 483 kts | 81° |
| 2026-05-07 18:37 | 38.90855 | -25.33263 | 27884 ft | 485 kts | 82° |
| 2026-05-07 18:37 | 38.91127 | -25.28936 | 28179 ft | 488 kts | 82° |
| 2026-05-07 18:37 | 38.91396 | -25.24585 | 28478 ft | 490 kts | 82° |
| 2026-05-07 18:38 | 38.91665 | -25.20208 | 28769 ft | 493 kts | 82° |
| 2026-05-07 18:38 | 38.91934 | -25.15818 | 29138 ft | 493 kts | 82° |
| 2026-05-07 18:38 | 38.92203 | -25.11435 | 29530 ft | 493 kts | 82° |
| 2026-05-07 18:38 | 38.92469 | -25.07052 | 29905 ft | 492 kts | 82° |
| 2026-05-07 18:39 | 38.92728 | -25.02665 | 30220 ft | 492 kts | 82° |
| 2026-05-07 18:39 | 38.92983 | -24.98277 | 30508 ft | 492 kts | 82° |
| 2026-05-07 18:39 | 38.93236 | -24.93952 | 30835 ft | 492 kts | 82° |
| 2026-05-07 18:39 | 38.93493 | -24.89570 | 31146 ft | 492 kts | 82° |
| 2026-05-07 18:40 | 38.93751 | -24.85184 | 31464 ft | 492 kts | 82° |
| 2026-05-07 18:40 | 38.94010 | -24.80794 | 31765 ft | 492 kts | 82° |
| 2026-05-07 18:40 | 38.94264 | -24.76404 | 32074 ft | 492 kts | 82° |
| 2026-05-07 18:40 | 38.94514 | -24.72014 | 32391 ft | 492 kts | 82° |
| 2026-05-07 18:41 | 38.94760 | -24.67631 | 32693 ft | 492 kts | 83° |
| 2026-05-07 18:41 | 38.95004 | -24.63286 | 32991 ft | 492 kts | 83° |
| 2026-05-07 18:41 | 38.95253 | -24.58900 | 33298 ft | 492 kts | 83° |
| 2026-05-07 18:41 | 38.95504 | -24.54514 | 33600 ft | 492 kts | 83° |
| 2026-05-07 18:42 | 38.95751 | -24.50134 | 33898 ft | 492 kts | 83° |
| 2026-05-07 18:42 | 38.95992 | -24.45755 | 34146 ft | 492 kts | 83° |
| 2026-05-07 18:42 | 38.96227 | -24.41365 | 34397 ft | 491 kts | 83° |
| 2026-05-07 18:42 | 38.96462 | -24.36996 | 34656 ft | 490 kts | 83° |
| 2026-05-07 18:43 | 38.96699 | -24.32606 | 34774 ft | 490 kts | 83° |
| 2026-05-07 18:43 | 38.97164 | -24.23913 | 34802 ft | 486 kts | 83° |
| 2026-05-07 18:44 | 38.97612 | -24.15243 | 34794 ft | 486 kts | 84° |
| 2026-05-07 18:44 | 38.98060 | -24.06635 | 34795 ft | 485 kts | 83° |
| 2026-05-07 18:45 | 38.98441 | -23.99391 | 34793 ft | 485 kts | 84° |
| 2026-05-07 18:45 | 38.98881 | -23.90738 | 34788 ft | 485 kts | 84° |
| 2026-05-07 18:46 | 38.99309 | -23.82084 | 34791 ft | 485 kts | 84° |
| 2026-05-07 18:46 | 38.99728 | -23.73488 | 34787 ft | 485 kts | 84° |
| 2026-05-07 18:47 | 39.00115 | -23.64829 | 34792 ft | 485 kts | 86° |
| 2026-05-07 18:47 | 39.00279 | -23.56138 | 34791 ft | 486 kts | 88° |
| 2026-05-07 18:48 | 39.00326 | -23.47450 | 34795 ft | 486 kts | 88° |
| 2026-05-07 18:48 | 39.00402 | -23.38768 | 34793 ft | 486 kts | 88° |
| 2026-05-07 18:49 | 39.00519 | -23.30079 | 34790 ft | 486 kts | 87° |
| 2026-05-07 18:49 | 39.00638 | -23.21459 | 34786 ft | 486 kts | 88° |
| 2026-05-07 18:50 | 39.00747 | -23.12776 | 34785 ft | 486 kts | 88° |
| 2026-05-07 18:50 | 39.00835 | -23.04090 | 34786 ft | 485 kts | 88° |
| 2026-05-07 18:51 | 39.00916 | -22.95409 | 34777 ft | 485 kts | 88° |
| 2026-05-07 18:51 | 39.00997 | -22.86740 | 34772 ft | 485 kts | 88° |
| 2026-05-07 18:52 | 39.01076 | -22.78075 | 34765 ft | 484 kts | 88° |
| 2026-05-07 18:52 | 39.01138 | -22.69455 | 34760 ft | 484 kts | 89° |
| 2026-05-07 18:53 | 39.01190 | -22.60794 | 34758 ft | 484 kts | 89° |
| 2026-05-07 18:53 | 39.01243 | -22.52133 | 34756 ft | 484 kts | 89° |
| 2026-05-07 18:54 | 39.01292 | -22.43464 | 34759 ft | 484 kts | 89° |
| 2026-05-07 18:54 | 39.01339 | -22.34810 | 34755 ft | 484 kts | 89° |
| 2026-05-07 18:55 | 39.01380 | -22.26153 | 34748 ft | 484 kts | 89° |
| 2026-05-07 18:55 | 39.01404 | -22.17545 | 34742 ft | 484 kts | 89° |
| 2026-05-07 18:56 | 39.01421 | -22.08889 | 34742 ft | 483 kts | 89° |
| 2026-05-07 18:56 | 39.01431 | -22.00248 | 34734 ft | 483 kts | 89° |
| 2026-05-07 18:57 | 39.01434 | -21.91609 | 34732 ft | 483 kts | 90° |
| 2026-05-07 18:57 | 39.01442 | -21.83028 | 34736 ft | 483 kts | 90° |
| 2026-05-07 18:58 | 39.01444 | -21.74330 | 34729 ft | 482 kts | 90° |
| 2026-05-07 18:58 | 39.01435 | -21.65705 | 34727 ft | 482 kts | 90° |
| 2026-05-07 18:59 | 39.01414 | -21.57079 | 34723 ft | 482 kts | 90° |
| 2026-05-07 18:59 | 39.01399 | -21.48525 | 34722 ft | 482 kts | 90° |
| 2026-05-07 19:00 | 39.01365 | -21.39919 | 34718 ft | 481 kts | 90° |
| 2026-05-07 19:00 | 39.01326 | -21.31308 | 34710 ft | 481 kts | 90° |
| 2026-05-07 19:01 | 39.01288 | -21.22710 | 34702 ft | 481 kts | 90° |
| 2026-05-07 19:01 | 39.01237 | -21.14107 | 34701 ft | 481 kts | 91° |
| 2026-05-07 19:02 | 39.01182 | -21.05498 | 34696 ft | 481 kts | 91° |
| 2026-05-07 19:02 | 39.01126 | -20.96887 | 34697 ft | 481 kts | 91° |
| 2026-05-07 19:03 | 39.01054 | -20.88275 | 34695 ft | 481 kts | 91° |
| 2026-05-07 19:03 | 39.00982 | -20.79659 | 34696 ft | 482 kts | 91° |
| 2026-05-07 19:04 | 39.00901 | -20.71044 | 34696 ft | 482 kts | 91° |
| 2026-05-07 19:04 | 39.00811 | -20.62434 | 34697 ft | 482 kts | 91° |
| 2026-05-07 19:05 | 39.00725 | -20.53813 | 34700 ft | 482 kts | 91° |
| 2026-05-07 19:05 | 39.00637 | -20.45253 | 34701 ft | 482 kts | 91° |
| 2026-05-07 19:06 | 39.00527 | -20.36628 | 34696 ft | 482 kts | 92° |
| 2026-05-07 19:06 | 39.00353 | -20.23699 | 34699 ft | 482 kts | 92° |
| 2026-05-07 19:07 | 39.00224 | -20.15064 | 34700 ft | 482 kts | 92° |
| 2026-05-07 19:07 | 39.00093 | -20.06488 | 34697 ft | 482 kts | 92° |
| 2026-05-07 19:08 | 38.99971 | -19.97865 | 34699 ft | 482 kts | 91° |
| 2026-05-07 19:08 | 39.00094 | -19.89227 | 34702 ft | 482 kts | 88° |
| 2026-05-07 19:09 | 39.00368 | -19.80608 | 34705 ft | 482 kts | 88° |
| 2026-05-07 19:09 | 39.00594 | -19.71986 | 34703 ft | 482 kts | 89° |
| 2026-05-07 19:10 | 39.00743 | -19.63369 | 34704 ft | 481 kts | 89° |
| 2026-05-07 19:10 | 39.00874 | -19.54824 | 34720 ft | 481 kts | 89° |
| 2026-05-07 19:11 | 39.01019 | -19.46213 | 34726 ft | 481 kts | 89° |
| 2026-05-07 19:11 | 39.01166 | -19.37649 | 34732 ft | 480 kts | 89° |
| 2026-05-07 19:12 | 39.01309 | -19.29061 | 34734 ft | 479 kts | 89° |
| 2026-05-07 19:12 | 39.01435 | -19.20496 | 34738 ft | 479 kts | 90° |
| 2026-05-07 19:13 | 39.01553 | -19.11945 | 34739 ft | 478 kts | 90° |
| 2026-05-07 19:13 | 39.01667 | -19.03406 | 34743 ft | 477 kts | 90° |
| 2026-05-07 19:14 | 39.01773 | -18.94874 | 34747 ft | 476 kts | 90° |
| 2026-05-07 19:14 | 39.01871 | -18.86350 | 34750 ft | 476 kts | 90° |
| 2026-05-07 19:15 | 39.01974 | -18.77857 | 34760 ft | 475 kts | 90° |
| 2026-05-07 19:15 | 39.02066 | -18.69372 | 34760 ft | 474 kts | 90° |
| 2026-05-07 19:16 | 39.02147 | -18.60933 | 34766 ft | 474 kts | 90° |
| 2026-05-07 19:16 | 39.02230 | -18.52455 | 34767 ft | 474 kts | 90° |
| 2026-05-07 19:17 | 39.02303 | -18.43961 | 34773 ft | 474 kts | 91° |
| 2026-05-07 19:17 | 39.02364 | -18.35495 | 34776 ft | 473 kts | 91° |
| 2026-05-07 19:18 | 39.02420 | -18.27035 | 34774 ft | 473 kts | 91° |
| 2026-05-07 19:18 | 39.02466 | -18.18590 | 34776 ft | 472 kts | 91° |
| 2026-05-07 19:19 | 39.02510 | -18.10150 | 34781 ft | 472 kts | 91° |
| 2026-05-07 19:19 | 39.02559 | -18.01716 | 34786 ft | 471 kts | 91° |
| 2026-05-07 19:20 | 39.02591 | -17.93295 | 34790 ft | 471 kts | 91° |
| 2026-05-07 19:20 | 39.02616 | -17.84938 | 34797 ft | 470 kts | 92° |
| 2026-05-07 19:21 | 39.02638 | -17.76512 | 34797 ft | 470 kts | 92° |
| 2026-05-07 19:21 | 39.02659 | -17.68125 | 34802 ft | 469 kts | 92° |
| 2026-05-07 19:22 | 39.02676 | -17.59734 | 34798 ft | 469 kts | 92° |
| 2026-05-07 19:22 | 39.02676 | -17.51344 | 34804 ft | 468 kts | 92° |
| 2026-05-07 19:23 | 39.02668 | -17.43029 | 34812 ft | 468 kts | 92° |
| 2026-05-07 19:23 | 39.02660 | -17.34664 | 34814 ft | 467 kts | 92° |
| 2026-05-07 19:24 | 39.02647 | -17.26447 | 34816 ft | 467 kts | 92° |
| 2026-05-07 19:24 | 39.02629 | -17.18101 | 34811 ft | 467 kts | 93° |
| 2026-05-07 19:25 | 39.02606 | -17.09758 | 34808 ft | 466 kts | 93° |
| 2026-05-07 19:25 | 39.02576 | -17.01420 | 34817 ft | 466 kts | 93° |
| 2026-05-07 19:26 | 39.02535 | -16.93126 | 34831 ft | 466 kts | 93° |
| 2026-05-07 19:26 | 39.02480 | -16.84793 | 34836 ft | 466 kts | 93° |
| 2026-05-07 19:27 | 39.02431 | -16.76462 | 34839 ft | 466 kts | 93° |
| 2026-05-07 19:27 | 39.02386 | -16.68136 | 34842 ft | 465 kts | 93° |
| 2026-05-07 19:28 | 39.02325 | -16.59817 | 34848 ft | 465 kts | 94° |
| 2026-05-07 19:28 | 39.02259 | -16.51508 | 34848 ft | 464 kts | 94° |
| 2026-05-07 19:29 | 39.02179 | -16.43197 | 34849 ft | 464 kts | 94° |
| 2026-05-07 19:29 | 39.02096 | -16.34944 | 34852 ft | 464 kts | 94° |
| 2026-05-07 19:30 | 39.02022 | -16.26595 | 34851 ft | 464 kts | 94° |
| 2026-05-07 19:30 | 39.01932 | -16.18346 | 34856 ft | 464 kts | 94° |
| 2026-05-07 19:31 | 39.01834 | -16.10055 | 34864 ft | 464 kts | 94° |
| 2026-05-07 19:31 | 39.01734 | -16.01764 | 34868 ft | 463 kts | 95° |
| 2026-05-07 19:32 | 39.01639 | -15.94873 | 34871 ft | 463 kts | 95° |
| 2026-05-07 19:32 | 39.01530 | -15.86587 | 34873 ft | 463 kts | 95° |
| 2026-05-07 19:33 | 39.01413 | -15.78324 | 34872 ft | 462 kts | 95° |
| 2026-05-07 19:33 | 39.01285 | -15.70058 | 34876 ft | 462 kts | 95° |
| 2026-05-07 19:34 | 39.01149 | -15.61806 | 34877 ft | 461 kts | 95° |
| 2026-05-07 19:34 | 39.01012 | -15.53552 | 34880 ft | 461 kts | 95° |
| 2026-05-07 19:35 | 39.00879 | -15.45312 | 34884 ft | 461 kts | 96° |
| 2026-05-07 19:35 | 39.00740 | -15.37131 | 34885 ft | 460 kts | 96° |
| 2026-05-07 19:36 | 39.00582 | -15.28894 | 34887 ft | 460 kts | 96° |
| 2026-05-07 19:36 | 39.00416 | -15.20655 | 34890 ft | 460 kts | 96° |
| 2026-05-07 19:37 | 39.00255 | -15.12430 | 34889 ft | 460 kts | 96° |
| 2026-05-07 19:37 | 39.00091 | -15.04193 | 34890 ft | 460 kts | 97° |
| 2026-05-07 19:38 | 38.99940 | -14.96028 | 34888 ft | 460 kts | 96° |
| 2026-05-07 19:38 | 38.99944 | -14.87776 | 34892 ft | 461 kts | 95° |
| 2026-05-07 19:39 | 38.99998 | -14.79534 | 34891 ft | 461 kts | 95° |
| 2026-05-07 19:39 | 39.00015 | -14.71288 | 34891 ft | 461 kts | 96° |
| 2026-05-07 19:40 | 38.99994 | -14.63038 | 34890 ft | 461 kts | 96° |
| 2026-05-07 19:40 | 38.99958 | -14.54789 | 34889 ft | 461 kts | 96° |
| 2026-05-07 19:41 | 38.99929 | -14.46597 | 34888 ft | 461 kts | 96° |
| 2026-05-07 19:41 | 38.99905 | -14.39810 | 34888 ft | 461 kts | 97° |
| 2026-05-07 19:42 | 38.99865 | -14.31569 | 34893 ft | 461 kts | 97° |
| 2026-05-07 19:42 | 38.99814 | -14.23326 | 34888 ft | 461 kts | 97° |
| 2026-05-07 19:43 | 38.99765 | -14.15076 | 34890 ft | 461 kts | 97° |
| 2026-05-07 19:43 | 38.99714 | -14.06827 | 34889 ft | 461 kts | 97° |
| 2026-05-07 19:44 | 38.99657 | -13.98591 | 34892 ft | 461 kts | 97° |
| 2026-05-07 19:44 | 38.99590 | -13.90383 | 34886 ft | 461 kts | 98° |
| 2026-05-07 19:45 | 38.99507 | -13.82137 | 34903 ft | 461 kts | 98° |
| 2026-05-07 19:45 | 38.99433 | -13.73887 | 34901 ft | 461 kts | 98° |
| 2026-05-07 19:46 | 38.99358 | -13.65646 | 34889 ft | 461 kts | 98° |
| 2026-05-07 19:46 | 38.99269 | -13.57415 | 34891 ft | 461 kts | 98° |
| 2026-05-07 19:47 | 38.99169 | -13.49177 | 34893 ft | 461 kts | 98° |
| 2026-05-07 19:47 | 38.99071 | -13.40998 | 34898 ft | 461 kts | 98° |
| 2026-05-07 19:48 | 38.98964 | -13.32765 | 34902 ft | 461 kts | 99° |
| 2026-05-07 19:48 | 38.98846 | -13.24528 | 34903 ft | 461 kts | 99° |
| 2026-05-07 19:49 | 38.98720 | -13.16297 | 34897 ft | 461 kts | 99° |
| 2026-05-07 19:49 | 38.98600 | -13.08074 | 34901 ft | 461 kts | 99° |
| 2026-05-07 19:50 | 38.98479 | -12.99817 | 34904 ft | 461 kts | 99° |
| 2026-05-07 19:50 | 38.98341 | -12.91567 | 34910 ft | 462 kts | 99° |
| 2026-05-07 19:51 | 38.98195 | -12.83318 | 34905 ft | 462 kts | 99° |
| 2026-05-07 19:51 | 38.98042 | -12.75061 | 34911 ft | 462 kts | 99° |
| 2026-05-07 19:52 | 38.97890 | -12.66833 | 34910 ft | 463 kts | 99° |
| 2026-05-07 19:52 | 38.97731 | -12.58560 | 34913 ft | 463 kts | 99° |
| 2026-05-07 19:53 | 38.97570 | -12.50292 | 34913 ft | 463 kts | 99° |
| 2026-05-07 19:53 | 38.97400 | -12.42009 | 34915 ft | 463 kts | 99° |
| 2026-05-07 19:54 | 38.97225 | -12.33723 | 34914 ft | 464 kts | 99° |
| 2026-05-07 19:54 | 38.97042 | -12.25431 | 34922 ft | 464 kts | 99° |
| 2026-05-07 19:55 | 38.96850 | -12.17144 | 34922 ft | 464 kts | 99° |
| 2026-05-07 19:55 | 38.96654 | -12.08859 | 34921 ft | 464 kts | 99° |
| 2026-05-07 19:56 | 38.96449 | -12.00575 | 34922 ft | 464 kts | 99° |
| 2026-05-07 19:56 | 38.96247 | -11.92344 | 34924 ft | 464 kts | 99° |
| 2026-05-07 19:57 | 38.96037 | -11.84058 | 34922 ft | 464 kts | 99° |
| 2026-05-07 19:57 | 38.95814 | -11.75760 | 34921 ft | 464 kts | 99° |
| 2026-05-07 19:58 | 38.95594 | -11.67449 | 34920 ft | 465 kts | 99° |
| 2026-05-07 19:58 | 38.95366 | -11.59199 | 34915 ft | 465 kts | 99° |
| 2026-05-07 19:59 | 38.95125 | -11.50892 | 34924 ft | 465 kts | 99° |
| 2026-05-07 19:59 | 38.94876 | -11.42577 | 34920 ft | 466 kts | 99° |
| 2026-05-07 20:00 | 38.94626 | -11.34256 | 34911 ft | 466 kts | 99° |
| 2026-05-07 20:00 | 38.94370 | -11.25928 | 34831 ft | 468 kts | 99° |
| 2026-05-07 20:01 | 38.94234 | -11.21736 | 34569 ft | 468 kts | 99° |
| 2026-05-07 20:01 | 38.94098 | -11.17540 | 33716 ft | 474 kts | 99° |
| 2026-05-07 20:01 | 38.93959 | -11.13271 | 32748 ft | 479 kts | 99° |
| 2026-05-07 20:01 | 38.93820 | -11.08972 | 31813 ft | 483 kts | 98° |
| 2026-05-07 20:02 | 38.93680 | -11.04644 | 30828 ft | 488 kts | 98° |
| 2026-05-07 20:02 | 38.93541 | -11.00272 | 29810 ft | 492 kts | 98° |
| 2026-05-07 20:02 | 38.93402 | -10.95928 | 28680 ft | 495 kts | 98° |
| 2026-05-07 20:02 | 38.93259 | -10.91514 | 28013 ft | 489 kts | 98° |
| 2026-05-07 20:03 | 38.93116 | -10.87182 | 27332 ft | 484 kts | 98° |
| 2026-05-07 20:03 | 38.92970 | -10.82886 | 26645 ft | 480 kts | 98° |
| 2026-05-07 20:03 | 38.92820 | -10.78619 | 25963 ft | 476 kts | 98° |
| 2026-05-07 20:03 | 38.92668 | -10.74388 | 25296 ft | 472 kts | 98° |
| 2026-05-07 20:04 | 38.92518 | -10.70214 | 24976 ft | 460 kts | 98° |
| 2026-05-07 20:04 | 38.92378 | -10.66181 | 24848 ft | 444 kts | 98° |
| 2026-05-07 20:04 | 38.92247 | -10.62281 | 24690 ft | 430 kts | 98° |
| 2026-05-07 20:04 | 38.92120 | -10.58473 | 24266 ft | 424 kts | 98° |
| 2026-05-07 20:05 | 38.91992 | -10.54709 | 23779 ft | 420 kts | 98° |
| 2026-05-07 20:05 | 38.91864 | -10.50973 | 23232 ft | 417 kts | 97° |
| 2026-05-07 20:05 | 38.91736 | -10.47261 | 22654 ft | 414 kts | 97° |
| 2026-05-07 20:05 | 38.91608 | -10.43587 | 22114 ft | 410 kts | 97° |
| 2026-05-07 20:06 | 38.91480 | -10.39992 | 21540 ft | 407 kts | 97° |
| 2026-05-07 20:06 | 38.91351 | -10.36388 | 21085 ft | 402 kts | 97° |
| 2026-05-07 20:06 | 38.91224 | -10.32826 | 20626 ft | 397 kts | 97° |
| 2026-05-07 20:06 | 38.91099 | -10.29296 | 20183 ft | 393 kts | 97° |
| 2026-05-07 20:07 | 38.90975 | -10.25802 | 19749 ft | 390 kts | 97° |
| 2026-05-07 20:07 | 38.90848 | -10.22341 | 19313 ft | 387 kts | 97° |
| 2026-05-07 20:07 | 38.90720 | -10.18898 | 18879 ft | 384 kts | 97° |
| 2026-05-07 20:07 | 38.90591 | -10.15482 | 18459 ft | 381 kts | 97° |
| 2026-05-07 20:08 | 38.90463 | -10.12093 | 18003 ft | 379 kts | 97° |
| 2026-05-07 20:08 | 38.90335 | -10.08738 | 17644 ft | 372 kts | 97° |
| 2026-05-07 20:08 | 38.90213 | -10.05483 | 17507 ft | 359 kts | 97° |
| 2026-05-07 20:08 | 38.90093 | -10.02337 | 17380 ft | 347 kts | 97° |
| 2026-05-07 20:09 | 38.89978 | -9.99294 | 17176 ft | 337 kts | 98° |
| 2026-05-07 20:09 | 38.89863 | -9.96311 | 16827 ft | 333 kts | 98° |
| 2026-05-07 20:09 | 38.89747 | -9.93349 | 16443 ft | 330 kts | 98° |
| 2026-05-07 20:10 | 38.89516 | -9.87524 | 15728 ft | 324 kts | 98° |
| 2026-05-07 20:10 | 38.89404 | -9.84691 | 15401 ft | 320 kts | 98° |
| 2026-05-07 20:10 | 38.89290 | -9.81847 | 15057 ft | 317 kts | 98° |
| 2026-05-07 20:10 | 38.89176 | -9.79033 | 14697 ft | 315 kts | 98° |
| 2026-05-07 20:11 | 38.89063 | -9.76237 | 14386 ft | 311 kts | 98° |
| 2026-05-07 20:11 | 38.88948 | -9.73482 | 14065 ft | 308 kts | 98° |
| 2026-05-07 20:11 | 38.88833 | -9.70745 | 13700 ft | 306 kts | 98° |
| 2026-05-07 20:11 | 38.88721 | -9.68022 | 13312 ft | 304 kts | 98° |
| 2026-05-07 20:12 | 38.88607 | -9.65312 | 12867 ft | 303 kts | 97° |
| 2026-05-07 20:12 | 38.88496 | -9.62616 | 12477 ft | 302 kts | 97° |
| 2026-05-07 20:12 | 38.88424 | -9.60845 | 12355 ft | 296 kts | 98° |
| 2026-05-07 20:12 | 38.87735 | -9.57617 | 12168 ft | 271 kts | 127° |
| 2026-05-07 20:13 | 38.86496 | -9.55914 | 12001 ft | 255 kts | 149° |
| 2026-05-07 20:13 | 38.84898 | -9.54999 | 11775 ft | 251 kts | 170° |
| 2026-05-07 20:13 | 38.83163 | -9.54882 | 11521 ft | 250 kts | 182° |
| 2026-05-07 20:13 | 38.81446 | -9.54933 | 11271 ft | 250 kts | 181° |
| 2026-05-07 20:14 | 38.79707 | -9.54973 | 11009 ft | 250 kts | 181° |
| 2026-05-07 20:14 | 38.77971 | -9.55009 | 10753 ft | 249 kts | 181° |
| 2026-05-07 20:14 | 38.76244 | -9.55044 | 10480 ft | 248 kts | 181° |
| 2026-05-07 20:14 | 38.74518 | -9.55077 | 10231 ft | 248 kts | 181° |
| 2026-05-07 20:15 | 38.72790 | -9.55111 | 9971 ft | 247 kts | 181° |
| 2026-05-07 20:15 | 38.71070 | -9.55149 | 9704 ft | 247 kts | 181° |
| 2026-05-07 20:15 | 38.69355 | -9.55185 | 9433 ft | 247 kts | 182° |
| 2026-05-07 20:15 | 38.67637 | -9.55223 | 9175 ft | 246 kts | 182° |
| 2026-05-07 20:16 | 38.66502 | -9.55248 | 9004 ft | 246 kts | 182° |
| 2026-05-07 20:16 | 38.64207 | -9.55298 | 8663 ft | 246 kts | 182° |
| 2026-05-07 20:16 | 38.62493 | -9.55335 | 8409 ft | 246 kts | 182° |
| 2026-05-07 20:16 | 38.60795 | -9.55371 | 8175 ft | 241 kts | 182° |
| 2026-05-07 20:17 | 38.59139 | -9.55328 | 7977 ft | 235 kts | 173° |
| 2026-05-07 20:17 | 38.57529 | -9.54930 | 7950 ft | 237 kts | 171° |
| 2026-05-07 20:17 | 38.55913 | -9.54521 | 7949 ft | 237 kts | 171° |
| 2026-05-07 20:17 | 38.54294 | -9.54113 | 7953 ft | 237 kts | 171° |
| 2026-05-07 20:18 | 38.52694 | -9.53709 | 7953 ft | 237 kts | 171° |
| 2026-05-07 20:18 | 38.51076 | -9.53302 | 7953 ft | 237 kts | 171° |
| 2026-05-07 20:18 | 38.49504 | -9.52660 | 7954 ft | 240 kts | 155° |
| 2026-05-07 20:18 | 38.48091 | -9.51519 | 7956 ft | 241 kts | 148° |
| 2026-05-07 20:19 | 38.46698 | -9.50322 | 7952 ft | 241 kts | 149° |
| 2026-05-07 20:19 | 38.45305 | -9.49138 | 7949 ft | 241 kts | 149° |